sensor_id;sensor_type;location;lat;lon;timestamp;P1;durP1;ratioP1;P2;durP2;ratioP2
11346;SDS011;5728;42.722;23.258;2023-05-14T00:01:03;3.60;;;2.50;;
11346;SDS011;5728;42.722;23.258;2023-05-14T00:03:33;3.60;;;3.20;;
11346;SDS011;5728;42.722;23.258;2023-05-14T00:06:01;3.72;;;2.80;;
11346;SDS011;5728;42.722;23.258;2023-05-14T00:08:27;3.28;;;2.97;;
11346;SDS011;5728;42.722;23.258;2023-05-14T00:10:54;3.28;;;2.80;;
11346;SDS011;5728;42.722;23.258;2023-05-14T00:13:21;4.13;;;2.85;;
11346;SDS011;5728;42.722;23.258;2023-05-14T00:15:48;2.90;;;2.60;;
11346;SDS011;5728;42.722;23.258;2023-05-14T00:18:15;3.90;;;2.72;;
11346;SDS011;5728;42.722;23.258;2023-05-14T00:20:43;3.40;;;2.63;;
11346;SDS011;5728;42.722;23.258;2023-05-14T00:23:09;2.95;;;2.75;;
11346;SDS011;5728;42.722;23.258;2023-05-14T00:25:36;4.47;;;3.30;;
11346;SDS011;5728;42.722;23.258;2023-05-14T00:28:03;7.00;;;3.13;;
11346;SDS011;5728;42.722;23.258;2023-05-14T00:30:30;4.63;;;2.77;;
11346;SDS011;5728;42.722;23.258;2023-05-14T00:32:56;3.95;;;2.67;;
11346;SDS011;5728;42.722;23.258;2023-05-14T00:35:23;6.93;;;3.00;;
11346;SDS011;5728;42.722;23.258;2023-05-14T00:37:51;7.97;;;3.00;;
11346;SDS011;5728;42.722;23.258;2023-05-14T00:40:18;4.30;;;2.88;;
11346;SDS011;5728;42.722;23.258;2023-05-14T00:42:45;4.28;;;2.72;;
11346;SDS011;5728;42.722;23.258;2023-05-14T00:45:12;3.37;;;2.97;;
11346;SDS011;5728;42.722;23.258;2023-05-14T00:47:39;2.83;;;2.60;;
11346;SDS011;5728;42.722;23.258;2023-05-14T00:50:06;2.50;;;2.30;;
11346;SDS011;5728;42.722;23.258;2023-05-14T00:52:33;3.13;;;2.83;;
11346;SDS011;5728;42.722;23.258;2023-05-14T00:55:03;3.93;;;3.00;;
11346;SDS011;5728;42.722;23.258;2023-05-14T00:57:32;4.77;;;2.80;;
11346;SDS011;5728;42.722;23.258;2023-05-14T01:00:00;3.33;;;2.40;;
11346;SDS011;5728;42.722;23.258;2023-05-14T01:02:27;3.07;;;2.70;;
11346;SDS011;5728;42.722;23.258;2023-05-14T01:04:54;6.80;;;2.90;;
11346;SDS011;5728;42.722;23.258;2023-05-14T01:07:23;5.70;;;2.87;;
11346;SDS011;5728;42.722;23.258;2023-05-14T01:09:56;2.88;;;2.67;;
11346;SDS011;5728;42.722;23.258;2023-05-14T01:12:32;5.88;;;3.15;;
11346;SDS011;5728;42.722;23.258;2023-05-14T01:15:05;5.47;;;2.58;;
11346;SDS011;5728;42.722;23.258;2023-05-14T01:17:37;4.33;;;3.27;;
11346;SDS011;5728;42.722;23.258;2023-05-14T01:20:07;5.83;;;3.03;;
11346;SDS011;5728;42.722;23.258;2023-05-14T01:22:36;5.30;;;2.97;;
11346;SDS011;5728;42.722;23.258;2023-05-14T01:25:03;4.10;;;2.70;;
11346;SDS011;5728;42.722;23.258;2023-05-14T01:27:30;3.33;;;2.50;;
11346;SDS011;5728;42.722;23.258;2023-05-14T01:30:05;5.67;;;2.57;;
11346;SDS011;5728;42.722;23.258;2023-05-14T01:32:38;3.30;;;2.40;;
11346;SDS011;5728;42.722;23.258;2023-05-14T01:35:07;2.30;;;2.10;;
11346;SDS011;5728;42.722;23.258;2023-05-14T01:37:36;7.77;;;2.30;;
11346;SDS011;5728;42.722;23.258;2023-05-14T01:40:06;3.97;;;2.30;;
11346;SDS011;5728;42.722;23.258;2023-05-14T01:42:34;2.80;;;2.30;;
11346;SDS011;5728;42.722;23.258;2023-05-14T01:45:01;4.40;;;2.50;;
11346;SDS011;5728;42.722;23.258;2023-05-14T01:47:28;3.77;;;2.60;;
11346;SDS011;5728;42.722;23.258;2023-05-14T01:49:55;3.67;;;2.10;;
11346;SDS011;5728;42.722;23.258;2023-05-14T01:52:22;4.10;;;2.27;;
11346;SDS011;5728;42.722;23.258;2023-05-14T01:54:50;3.47;;;2.90;;
11346;SDS011;5728;42.722;23.258;2023-05-14T01:57:16;5.73;;;2.73;;
11346;SDS011;5728;42.722;23.258;2023-05-14T01:59:43;3.17;;;2.67;;
11346;SDS011;5728;42.722;23.258;2023-05-14T02:02:10;4.97;;;2.83;;
11346;SDS011;5728;42.722;23.258;2023-05-14T02:04:36;4.47;;;2.80;;
11346;SDS011;5728;42.722;23.258;2023-05-14T02:07:03;5.00;;;2.60;;
11346;SDS011;5728;42.722;23.258;2023-05-14T02:09:30;5.37;;;2.47;;
11346;SDS011;5728;42.722;23.258;2023-05-14T02:11:58;7.67;;;2.17;;
11346;SDS011;5728;42.722;23.258;2023-05-14T02:14:25;5.00;;;2.20;;
11346;SDS011;5728;42.722;23.258;2023-05-14T02:16:52;2.47;;;2.00;;
11346;SDS011;5728;42.722;23.258;2023-05-14T02:19:18;3.97;;;2.50;;
11346;SDS011;5728;42.722;23.258;2023-05-14T02:21:45;3.20;;;2.87;;
11346;SDS011;5728;42.722;23.258;2023-05-14T02:24:13;2.87;;;2.60;;
11346;SDS011;5728;42.722;23.258;2023-05-14T02:26:39;2.60;;;2.40;;
11346;SDS011;5728;42.722;23.258;2023-05-14T02:29:07;2.63;;;2.43;;
11346;SDS011;5728;42.722;23.258;2023-05-14T02:31:34;4.00;;;3.10;;
11346;SDS011;5728;42.722;23.258;2023-05-14T02:34:01;3.77;;;2.63;;
11346;SDS011;5728;42.722;23.258;2023-05-14T02:36:28;3.93;;;2.60;;
11346;SDS011;5728;42.722;23.258;2023-05-14T02:38:57;4.03;;;2.40;;
11346;SDS011;5728;42.722;23.258;2023-05-14T02:41:24;2.73;;;2.20;;
11346;SDS011;5728;42.722;23.258;2023-05-14T02:43:50;7.33;;;2.50;;
11346;SDS011;5728;42.722;23.258;2023-05-14T02:46:18;3.63;;;2.63;;
11346;SDS011;5728;42.722;23.258;2023-05-14T02:48:45;2.70;;;2.40;;
11346;SDS011;5728;42.722;23.258;2023-05-14T02:51:12;2.80;;;2.50;;
11346;SDS011;5728;42.722;23.258;2023-05-14T02:53:38;4.63;;;2.90;;
11346;SDS011;5728;42.722;23.258;2023-05-14T02:56:05;5.60;;;2.90;;
11346;SDS011;5728;42.722;23.258;2023-05-14T02:58:32;3.20;;;2.40;;
11346;SDS011;5728;42.722;23.258;2023-05-14T03:00:59;3.47;;;2.20;;
11346;SDS011;5728;42.722;23.258;2023-05-14T03:03:27;4.33;;;2.77;;
11346;SDS011;5728;42.722;23.258;2023-05-14T03:05:54;3.47;;;2.83;;
11346;SDS011;5728;42.722;23.258;2023-05-14T03:08:21;3.37;;;2.07;;
11346;SDS011;5728;42.722;23.258;2023-05-14T03:10:48;2.80;;;2.30;;
11346;SDS011;5728;42.722;23.258;2023-05-14T03:13:15;3.07;;;2.60;;
11346;SDS011;5728;42.722;23.258;2023-05-14T03:15:44;5.33;;;2.53;;
11346;SDS011;5728;42.722;23.258;2023-05-14T03:18:11;2.50;;;2.30;;
11346;SDS011;5728;42.722;23.258;2023-05-14T03:20:39;4.93;;;2.70;;
11346;SDS011;5728;42.722;23.258;2023-05-14T03:23:06;4.80;;;2.60;;
11346;SDS011;5728;42.722;23.258;2023-05-14T03:25:32;7.87;;;2.50;;
11346;SDS011;5728;42.722;23.258;2023-05-14T03:27:59;4.13;;;2.47;;
11346;SDS011;5728;42.722;23.258;2023-05-14T03:30:26;3.37;;;2.27;;
11346;SDS011;5728;42.722;23.258;2023-05-14T03:32:52;2.63;;;2.37;;
11346;SDS011;5728;42.722;23.258;2023-05-14T03:35:19;6.93;;;2.73;;
11346;SDS011;5728;42.722;23.258;2023-05-14T03:37:47;3.50;;;2.70;;
11346;SDS011;5728;42.722;23.258;2023-05-14T03:40:15;2.70;;;2.30;;
11346;SDS011;5728;42.722;23.258;2023-05-14T03:42:41;4.43;;;2.50;;
11346;SDS011;5728;42.722;23.258;2023-05-14T03:45:08;4.03;;;2.53;;
11346;SDS011;5728;42.722;23.258;2023-05-14T03:47:35;4.23;;;2.40;;
11346;SDS011;5728;42.722;23.258;2023-05-14T03:50:02;4.43;;;2.53;;
11346;SDS011;5728;42.722;23.258;2023-05-14T03:52:29;2.90;;;2.70;;
11346;SDS011;5728;42.722;23.258;2023-05-14T03:54:57;3.33;;;2.70;;
11346;SDS011;5728;42.722;23.258;2023-05-14T03:57:24;2.83;;;2.30;;
11346;SDS011;5728;42.722;23.258;2023-05-14T03:59:51;2.97;;;2.73;;
11346;SDS011;5728;42.722;23.258;2023-05-14T04:02:17;2.40;;;2.07;;
11346;SDS011;5728;42.722;23.258;2023-05-14T04:04:44;4.37;;;2.30;;
11346;SDS011;5728;42.722;23.258;2023-05-14T04:07:11;5.23;;;2.90;;
11346;SDS011;5728;42.722;23.258;2023-05-14T04:09:37;4.97;;;2.87;;
11346;SDS011;5728;42.722;23.258;2023-05-14T04:12:06;4.07;;;2.40;;
11346;SDS011;5728;42.722;23.258;2023-05-14T04:14:33;4.43;;;3.00;;
11346;SDS011;5728;42.722;23.258;2023-05-14T04:17:00;7.40;;;2.90;;
11346;SDS011;5728;42.722;23.258;2023-05-14T04:19:27;4.87;;;2.40;;
11346;SDS011;5728;42.722;23.258;2023-05-14T04:21:53;2.83;;;2.53;;
11346;SDS011;5728;42.722;23.258;2023-05-14T04:24:20;4.27;;;3.00;;
11346;SDS011;5728;42.722;23.258;2023-05-14T04:26:47;3.73;;;2.50;;
11346;SDS011;5728;42.722;23.258;2023-05-14T04:29:15;7.37;;;3.00;;
11346;SDS011;5728;42.722;23.258;2023-05-14T04:31:41;4.70;;;2.53;;
11346;SDS011;5728;42.722;23.258;2023-05-14T04:34:08;5.80;;;3.00;;
11346;SDS011;5728;42.722;23.258;2023-05-14T04:36:35;3.50;;;2.70;;
11346;SDS011;5728;42.722;23.258;2023-05-14T04:39:02;3.33;;;2.77;;
11346;SDS011;5728;42.722;23.258;2023-05-14T04:41:30;5.37;;;2.70;;
11346;SDS011;5728;42.722;23.258;2023-05-14T04:43:57;4.00;;;2.63;;
11346;SDS011;5728;42.722;23.258;2023-05-14T04:46:26;5.60;;;3.77;;
11346;SDS011;5728;42.722;23.258;2023-05-14T04:48:53;7.20;;;2.53;;
11346;SDS011;5728;42.722;23.258;2023-05-14T04:51:20;4.00;;;2.63;;
11346;SDS011;5728;42.722;23.258;2023-05-14T04:53:47;4.07;;;2.63;;
11346;SDS011;5728;42.722;23.258;2023-05-14T04:56:13;2.80;;;2.27;;
11346;SDS011;5728;42.722;23.258;2023-05-14T04:58:40;4.10;;;2.87;;
11346;SDS011;5728;42.722;23.258;2023-05-14T05:01:07;3.10;;;2.80;;
11346;SDS011;5728;42.722;23.258;2023-05-14T05:03:35;3.20;;;2.90;;
11346;SDS011;5728;42.722;23.258;2023-05-14T05:06:02;4.77;;;2.83;;
11346;SDS011;5728;42.722;23.258;2023-05-14T05:08:29;3.47;;;2.97;;
11346;SDS011;5728;42.722;23.258;2023-05-14T05:10:56;3.53;;;2.77;;
11346;SDS011;5728;42.722;23.258;2023-05-14T05:13:23;8.90;;;3.13;;
11346;SDS011;5728;42.722;23.258;2023-05-14T05:15:49;3.60;;;2.63;;
11346;SDS011;5728;42.722;23.258;2023-05-14T05:18:16;4.93;;;2.50;;
11346;SDS011;5728;42.722;23.258;2023-05-14T05:20:44;3.93;;;3.00;;
11346;SDS011;5728;42.722;23.258;2023-05-14T05:23:11;3.57;;;3.13;;
11346;SDS011;5728;42.722;23.258;2023-05-14T05:25:38;4.80;;;3.20;;
11346;SDS011;5728;42.722;23.258;2023-05-14T05:28:05;6.83;;;3.53;;
11346;SDS011;5728;42.722;23.258;2023-05-14T05:30:31;10.40;;;3.23;;
11346;SDS011;5728;42.722;23.258;2023-05-14T05:32:58;5.40;;;3.23;;
11346;SDS011;5728;42.722;23.258;2023-05-14T05:35:25;4.90;;;3.43;;
11346;SDS011;5728;42.722;23.258;2023-05-14T05:37:53;6.50;;;3.60;;
11346;SDS011;5728;42.722;23.258;2023-05-14T05:40:20;4.73;;;3.23;;
11346;SDS011;5728;42.722;23.258;2023-05-14T05:42:48;3.50;;;3.20;;
11346;SDS011;5728;42.722;23.258;2023-05-14T05:45:15;4.57;;;3.53;;
11346;SDS011;5728;42.722;23.258;2023-05-14T05:47:41;5.63;;;3.67;;
11346;SDS011;5728;42.722;23.258;2023-05-14T05:50:09;6.17;;;3.97;;
11346;SDS011;5728;42.722;23.258;2023-05-14T05:52:36;6.10;;;3.93;;
11346;SDS011;5728;42.722;23.258;2023-05-14T05:55:05;5.67;;;3.63;;
11346;SDS011;5728;42.722;23.258;2023-05-14T05:57:32;4.97;;;4.00;;
11346;SDS011;5728;42.722;23.258;2023-05-14T05:59:58;4.50;;;3.70;;
11346;SDS011;5728;42.722;23.258;2023-05-14T06:02:28;5.27;;;4.00;;
11346;SDS011;5728;42.722;23.258;2023-05-14T06:04:55;7.33;;;4.47;;
11346;SDS011;5728;42.722;23.258;2023-05-14T06:07:21;4.93;;;4.43;;
11346;SDS011;5728;42.722;23.258;2023-05-14T06:09:48;26.73;;;4.37;;
11346;SDS011;5728;42.722;23.258;2023-05-14T06:12:16;5.67;;;4.30;;
11346;SDS011;5728;42.722;23.258;2023-05-14T06:14:43;9.23;;;4.60;;
11346;SDS011;5728;42.722;23.258;2023-05-14T06:17:09;6.53;;;4.40;;
11346;SDS011;5728;42.722;23.258;2023-05-14T06:19:36;7.23;;;4.60;;
11346;SDS011;5728;42.722;23.258;2023-05-14T06:22:03;5.53;;;4.27;;
11346;SDS011;5728;42.722;23.258;2023-05-14T06:24:30;6.13;;;4.47;;
11346;SDS011;5728;42.722;23.258;2023-05-14T06:26:57;5.77;;;4.60;;
11346;SDS011;5728;42.722;23.258;2023-05-14T06:29:25;6.77;;;4.57;;
11346;SDS011;5728;42.722;23.258;2023-05-14T06:31:55;6.37;;;4.60;;
11346;SDS011;5728;42.722;23.258;2023-05-14T06:34:26;8.27;;;5.63;;
11346;SDS011;5728;42.722;23.258;2023-05-14T06:36:53;5.90;;;4.40;;
11346;SDS011;5728;42.722;23.258;2023-05-14T06:39:19;8.03;;;5.07;;
11346;SDS011;5728;42.722;23.258;2023-05-14T06:41:46;7.00;;;4.90;;
11346;SDS011;5728;42.722;23.258;2023-05-14T06:44:13;18.23;;;9.27;;
11346;SDS011;5728;42.722;23.258;2023-05-14T06:46:41;10.87;;;6.17;;
11346;SDS011;5728;42.722;23.258;2023-05-14T06:49:08;11.50;;;6.50;;
11346;SDS011;5728;42.722;23.258;2023-05-14T06:51:34;6.10;;;4.87;;
11346;SDS011;5728;42.722;23.258;2023-05-14T06:54:03;10.40;;;5.13;;
11346;SDS011;5728;42.722;23.258;2023-05-14T06:56:29;15.10;;;5.63;;
11346;SDS011;5728;42.722;23.258;2023-05-14T06:58:56;7.90;;;4.83;;
11346;SDS011;5728;42.722;23.258;2023-05-14T07:01:23;5.87;;;4.80;;
11346;SDS011;5728;42.722;23.258;2023-05-14T07:03:51;7.13;;;5.37;;
11346;SDS011;5728;42.722;23.258;2023-05-14T07:06:18;8.47;;;5.73;;
11346;SDS011;5728;42.722;23.258;2023-05-14T07:08:45;8.87;;;5.93;;
11346;SDS011;5728;42.722;23.258;2023-05-14T07:11:12;11.23;;;7.13;;
11346;SDS011;5728;42.722;23.258;2023-05-14T07:13:39;11.70;;;8.33;;
11346;SDS011;5728;42.722;23.258;2023-05-14T07:16:06;8.53;;;6.70;;
11346;SDS011;5728;42.722;23.258;2023-05-14T07:18:34;10.40;;;7.17;;
11346;SDS011;5728;42.722;23.258;2023-05-14T07:21:02;9.60;;;6.73;;
11346;SDS011;5728;42.722;23.258;2023-05-14T07:23:30;13.27;;;7.37;;
11346;SDS011;5728;42.722;23.258;2023-05-14T07:25:57;11.47;;;7.13;;
11346;SDS011;5728;42.722;23.258;2023-05-14T07:28:24;11.00;;;7.13;;
11346;SDS011;5728;42.722;23.258;2023-05-14T07:30:51;11.40;;;6.67;;
11346;SDS011;5728;42.722;23.258;2023-05-14T07:33:18;11.07;;;7.13;;
11346;SDS011;5728;42.722;23.258;2023-05-14T07:35:45;11.73;;;7.13;;
11346;SDS011;5728;42.722;23.258;2023-05-14T07:38:13;14.90;;;8.17;;
11346;SDS011;5728;42.722;23.258;2023-05-14T07:40:40;12.27;;;8.30;;
11346;SDS011;5728;42.722;23.258;2023-05-14T07:43:07;11.27;;;8.17;;
11346;SDS011;5728;42.722;23.258;2023-05-14T07:45:36;10.53;;;7.50;;
11346;SDS011;5728;42.722;23.258;2023-05-14T07:48:03;9.83;;;7.03;;
11346;SDS011;5728;42.722;23.258;2023-05-14T07:50:30;12.50;;;7.00;;
11346;SDS011;5728;42.722;23.258;2023-05-14T07:52:57;7.27;;;6.53;;
11346;SDS011;5728;42.722;23.258;2023-05-14T07:55:25;11.63;;;8.03;;
11346;SDS011;5728;42.722;23.258;2023-05-14T07:57:52;7.17;;;6.33;;
11346;SDS011;5728;42.722;23.258;2023-05-14T08:00:19;12.80;;;6.77;;
11346;SDS011;5728;42.722;23.258;2023-05-14T08:02:46;8.13;;;5.77;;
11346;SDS011;5728;42.722;23.258;2023-05-14T08:05:14;6.60;;;5.97;;
11346;SDS011;5728;42.722;23.258;2023-05-14T08:07:41;10.07;;;6.57;;
11346;SDS011;5728;42.722;23.258;2023-05-14T08:10:08;6.93;;;5.97;;
11346;SDS011;5728;42.722;23.258;2023-05-14T08:12:37;8.97;;;6.33;;
11346;SDS011;5728;42.722;23.258;2023-05-14T08:15:04;9.97;;;6.27;;
11346;SDS011;5728;42.722;23.258;2023-05-14T08:17:33;9.43;;;6.10;;
11346;SDS011;5728;42.722;23.258;2023-05-14T08:20:00;6.57;;;5.57;;
11346;SDS011;5728;42.722;23.258;2023-05-14T08:22:27;10.87;;;5.87;;
11346;SDS011;5728;42.722;23.258;2023-05-14T08:24:54;8.00;;;6.93;;
11346;SDS011;5728;42.722;23.258;2023-05-14T08:27:21;10.20;;;5.13;;
11346;SDS011;5728;42.722;23.258;2023-05-14T08:29:49;7.60;;;5.63;;
11346;SDS011;5728;42.722;23.258;2023-05-14T08:32:16;7.20;;;4.97;;
11346;SDS011;5728;42.722;23.258;2023-05-14T08:34:42;7.93;;;5.63;;
11346;SDS011;5728;42.722;23.258;2023-05-14T08:37:09;6.67;;;5.00;;
11346;SDS011;5728;42.722;23.258;2023-05-14T08:39:36;7.87;;;6.20;;
11346;SDS011;5728;42.722;23.258;2023-05-14T08:42:03;7.33;;;5.37;;
11346;SDS011;5728;42.722;23.258;2023-05-14T08:44:35;9.10;;;5.83;;
11346;SDS011;5728;42.722;23.258;2023-05-14T08:47:05;7.40;;;5.90;;
11346;SDS011;5728;42.722;23.258;2023-05-14T08:49:36;10.33;;;5.93;;
11346;SDS011;5728;42.722;23.258;2023-05-14T08:52:05;8.57;;;6.30;;
11346;SDS011;5728;42.722;23.258;2023-05-14T08:54:33;8.67;;;6.00;;
11346;SDS011;5728;42.722;23.258;2023-05-14T08:57:01;8.83;;;5.97;;
11346;SDS011;5728;42.722;23.258;2023-05-14T08:59:28;7.03;;;5.27;;
11346;SDS011;5728;42.722;23.258;2023-05-14T09:01:55;8.33;;;5.53;;
11346;SDS011;5728;42.722;23.258;2023-05-14T09:04:27;6.70;;;5.83;;
11346;SDS011;5728;42.722;23.258;2023-05-14T09:06:55;7.83;;;5.97;;
11346;SDS011;5728;42.722;23.258;2023-05-14T09:09:21;8.03;;;6.87;;
11346;SDS011;5728;42.722;23.258;2023-05-14T09:11:49;8.70;;;6.57;;
11346;SDS011;5728;42.722;23.258;2023-05-14T09:14:17;8.27;;;6.07;;
11346;SDS011;5728;42.722;23.258;2023-05-14T09:16:44;8.63;;;5.90;;
11346;SDS011;5728;42.722;23.258;2023-05-14T09:19:12;9.27;;;6.10;;
11346;SDS011;5728;42.722;23.258;2023-05-14T09:21:43;7.60;;;5.90;;
11346;SDS011;5728;42.722;23.258;2023-05-14T09:24:17;7.30;;;6.03;;
11346;SDS011;5728;42.722;23.258;2023-05-14T09:26:48;6.90;;;6.03;;
11346;SDS011;5728;42.722;23.258;2023-05-14T09:29:16;8.73;;;5.37;;
11346;SDS011;5728;42.722;23.258;2023-05-14T09:31:43;6.57;;;5.63;;
11346;SDS011;5728;42.722;23.258;2023-05-14T09:34:10;7.93;;;5.87;;
11346;SDS011;5728;42.722;23.258;2023-05-14T09:36:49;5.93;;;5.37;;
11346;SDS011;5728;42.722;23.258;2023-05-14T09:39:21;7.90;;;5.93;;
11346;SDS011;5728;42.722;23.258;2023-05-14T09:41:48;6.20;;;5.40;;
11346;SDS011;5728;42.722;23.258;2023-05-14T09:44:16;8.83;;;5.50;;
11346;SDS011;5728;42.722;23.258;2023-05-14T09:46:43;10.60;;;5.90;;
11346;SDS011;5728;42.722;23.258;2023-05-14T09:49:10;14.83;;;5.80;;
11346;SDS011;5728;42.722;23.258;2023-05-14T09:51:37;6.03;;;5.23;;
11346;SDS011;5728;42.722;23.258;2023-05-14T09:54:06;8.33;;;5.50;;
11346;SDS011;5728;42.722;23.258;2023-05-14T09:56:33;6.07;;;5.40;;
11346;SDS011;5728;42.722;23.258;2023-05-14T09:59:01;8.03;;;5.77;;
11346;SDS011;5728;42.722;23.258;2023-05-14T10:01:29;7.60;;;6.60;;
11346;SDS011;5728;42.722;23.258;2023-05-14T10:03:57;9.13;;;5.70;;
11346;SDS011;5728;42.722;23.258;2023-05-14T10:06:24;7.37;;;6.07;;
11346;SDS011;5728;42.722;23.258;2023-05-14T10:08:53;7.73;;;5.13;;
11346;SDS011;5728;42.722;23.258;2023-05-14T10:11:24;8.63;;;6.17;;
11346;SDS011;5728;42.722;23.258;2023-05-14T10:14:00;12.13;;;6.00;;
11346;SDS011;5728;42.722;23.258;2023-05-14T10:16:30;7.23;;;5.77;;
11346;SDS011;5728;42.722;23.258;2023-05-14T10:18:59;10.63;;;7.13;;
11346;SDS011;5728;42.722;23.258;2023-05-14T10:21:31;8.77;;;5.97;;
11346;SDS011;5728;42.722;23.258;2023-05-14T10:24:00;6.77;;;5.70;;
11346;SDS011;5728;42.722;23.258;2023-05-14T10:26:29;6.77;;;6.07;;
11346;SDS011;5728;42.722;23.258;2023-05-14T10:28:57;10.97;;;6.73;;
11346;SDS011;5728;42.722;23.258;2023-05-14T10:36:59;7.90;;;6.43;;
11346;SDS011;5728;42.722;23.258;2023-05-14T10:39:39;9.93;;;7.07;;
11346;SDS011;5728;42.722;23.258;2023-05-14T10:42:09;10.17;;;7.90;;
11346;SDS011;5728;42.722;23.258;2023-05-14T10:44:37;8.63;;;7.40;;
11346;SDS011;5728;42.722;23.258;2023-05-14T10:47:12;10.80;;;7.57;;
11346;SDS011;5728;42.722;23.258;2023-05-14T10:49:40;10.53;;;8.20;;
11346;SDS011;5728;42.722;23.258;2023-05-14T10:52:07;9.43;;;8.07;;
11346;SDS011;5728;42.722;23.258;2023-05-14T10:54:35;9.10;;;7.17;;
11346;SDS011;5728;42.722;23.258;2023-05-14T10:57:02;9.50;;;7.70;;
11346;SDS011;5728;42.722;23.258;2023-05-14T10:59:30;7.47;;;6.57;;
11346;SDS011;5728;42.722;23.258;2023-05-14T11:01:59;11.43;;;7.23;;
11346;SDS011;5728;42.722;23.258;2023-05-14T11:04:26;8.23;;;7.23;;
11346;SDS011;5728;42.722;23.258;2023-05-14T11:06:53;9.17;;;6.33;;
11346;SDS011;5728;42.722;23.258;2023-05-14T11:09:21;9.87;;;7.40;;
11346;SDS011;5728;42.722;23.258;2023-05-14T11:11:50;10.67;;;6.83;;
11346;SDS011;5728;42.722;23.258;2023-05-14T11:14:16;10.70;;;7.10;;
11346;SDS011;5728;42.722;23.258;2023-05-14T11:16:46;12.47;;;7.27;;
11346;SDS011;5728;42.722;23.258;2023-05-14T11:19:13;9.17;;;6.13;;
11346;SDS011;5728;42.722;23.258;2023-05-14T11:21:41;8.33;;;6.73;;
11346;SDS011;5728;42.722;23.258;2023-05-14T11:24:08;8.73;;;6.50;;
11346;SDS011;5728;42.722;23.258;2023-05-14T11:26:35;7.87;;;6.73;;
11346;SDS011;5728;42.722;23.258;2023-05-14T11:29:03;8.57;;;6.90;;
11346;SDS011;5728;42.722;23.258;2023-05-14T11:31:30;9.23;;;6.93;;
11346;SDS011;5728;42.722;23.258;2023-05-14T11:33:58;10.53;;;7.23;;
11346;SDS011;5728;42.722;23.258;2023-05-14T11:36:27;9.50;;;7.73;;
11346;SDS011;5728;42.722;23.258;2023-05-14T11:38:55;7.40;;;6.30;;
11346;SDS011;5728;42.722;23.258;2023-05-14T11:41:21;9.27;;;6.73;;
11346;SDS011;5728;42.722;23.258;2023-05-14T11:43:48;8.17;;;7.27;;
11346;SDS011;5728;42.722;23.258;2023-05-14T11:46:15;7.77;;;6.90;;
11346;SDS011;5728;42.722;23.258;2023-05-14T11:48:43;9.63;;;6.00;;
11346;SDS011;5728;42.722;23.258;2023-05-14T11:51:11;7.97;;;6.60;;
11346;SDS011;5728;42.722;23.258;2023-05-14T11:53:38;9.93;;;7.03;;
11346;SDS011;5728;42.722;23.258;2023-05-14T11:56:04;7.73;;;6.07;;
11346;SDS011;5728;42.722;23.258;2023-05-14T11:58:32;6.70;;;5.93;;
11346;SDS011;5728;42.722;23.258;2023-05-14T12:00:59;7.53;;;6.70;;
11346;SDS011;5728;42.722;23.258;2023-05-14T12:03:26;9.33;;;7.47;;
11346;SDS011;5728;42.722;23.258;2023-05-14T12:05:54;13.70;;;6.83;;
11346;SDS011;5728;42.722;23.258;2023-05-14T12:08:24;7.43;;;6.60;;
11346;SDS011;5728;42.722;23.258;2023-05-14T12:10:52;7.93;;;6.37;;
11346;SDS011;5728;42.722;23.258;2023-05-14T12:13:19;8.37;;;6.50;;
11346;SDS011;5728;42.722;23.258;2023-05-14T12:15:45;7.93;;;7.13;;
11346;SDS011;5728;42.722;23.258;2023-05-14T12:18:12;9.23;;;6.47;;
11346;SDS011;5728;42.722;23.258;2023-05-14T12:20:44;6.80;;;5.87;;
11346;SDS011;5728;42.722;23.258;2023-05-14T12:23:12;7.27;;;6.53;;
11346;SDS011;5728;42.722;23.258;2023-05-14T12:25:40;7.53;;;6.73;;
11346;SDS011;5728;42.722;23.258;2023-05-14T12:28:15;7.43;;;6.57;;
11346;SDS011;5728;42.722;23.258;2023-05-14T12:30:42;7.77;;;6.97;;
11346;SDS011;5728;42.722;23.258;2023-05-14T12:33:08;8.07;;;6.80;;
11346;SDS011;5728;42.722;23.258;2023-05-14T12:35:35;9.17;;;7.40;;
11346;SDS011;5728;42.722;23.258;2023-05-14T12:38:04;8.23;;;7.30;;
11346;SDS011;5728;42.722;23.258;2023-05-14T12:40:31;7.10;;;6.30;;
11346;SDS011;5728;42.722;23.258;2023-05-14T12:42:59;7.77;;;6.97;;
11346;SDS011;5728;42.722;23.258;2023-05-14T12:45:26;7.20;;;6.50;;
11346;SDS011;5728;42.722;23.258;2023-05-14T12:47:55;6.90;;;5.90;;
11346;SDS011;5728;42.722;23.258;2023-05-14T12:50:21;7.63;;;6.07;;
11346;SDS011;5728;42.722;23.258;2023-05-14T12:52:48;9.07;;;7.37;;
11346;SDS011;5728;42.722;23.258;2023-05-14T12:55:15;8.37;;;6.57;;
11346;SDS011;5728;42.722;23.258;2023-05-14T12:57:42;9.67;;;6.77;;
11346;SDS011;5728;42.722;23.258;2023-05-14T13:00:10;7.13;;;6.23;;
11346;SDS011;5728;42.722;23.258;2023-05-14T13:02:38;8.37;;;6.93;;
11346;SDS011;5728;42.722;23.258;2023-05-14T13:05:05;8.37;;;6.70;;
11346;SDS011;5728;42.722;23.258;2023-05-14T13:07:32;13.50;;;7.60;;
11346;SDS011;5728;42.722;23.258;2023-05-14T13:10:00;9.07;;;7.43;;
11346;SDS011;5728;42.722;23.258;2023-05-14T13:12:29;9.07;;;6.97;;
11346;SDS011;5728;42.722;23.258;2023-05-14T13:14:56;9.13;;;7.03;;
11346;SDS011;5728;42.722;23.258;2023-05-14T13:17:24;9.23;;;7.80;;
11346;SDS011;5728;42.722;23.258;2023-05-14T13:19:51;8.87;;;7.03;;
11346;SDS011;5728;42.722;23.258;2023-05-14T13:22:18;9.57;;;7.43;;
11346;SDS011;5728;42.722;23.258;2023-05-14T13:24:45;10.07;;;7.23;;
11346;SDS011;5728;42.722;23.258;2023-05-14T13:27:11;8.43;;;7.53;;
11346;SDS011;5728;42.722;23.258;2023-05-14T13:29:38;10.37;;;6.93;;
11346;SDS011;5728;42.722;23.258;2023-05-14T13:32:06;9.77;;;7.67;;
11346;SDS011;5728;42.722;23.258;2023-05-14T13:34:34;11.17;;;8.20;;
11346;SDS011;5728;42.722;23.258;2023-05-14T13:37:01;8.70;;;7.57;;
11346;SDS011;5728;42.722;23.258;2023-05-14T13:39:28;9.73;;;8.10;;
11346;SDS011;5728;42.722;23.258;2023-05-14T13:41:55;7.87;;;7.07;;
11346;SDS011;5728;42.722;23.258;2023-05-14T13:44:21;9.43;;;7.93;;
11346;SDS011;5728;42.722;23.258;2023-05-14T13:46:48;12.13;;;9.60;;
11346;SDS011;5728;42.722;23.258;2023-05-14T13:49:15;13.50;;;9.33;;
11346;SDS011;5728;42.722;23.258;2023-05-14T13:51:43;14.67;;;9.93;;
11346;SDS011;5728;42.722;23.258;2023-05-14T13:54:10;11.53;;;9.47;;
11346;SDS011;5728;42.722;23.258;2023-05-14T13:56:37;12.37;;;9.73;;
11346;SDS011;5728;42.722;23.258;2023-05-14T13:59:03;11.23;;;9.43;;
11346;SDS011;5728;42.722;23.258;2023-05-14T14:01:30;11.83;;;9.57;;
11346;SDS011;5728;42.722;23.258;2023-05-14T14:03:57;12.17;;;9.77;;
11346;SDS011;5728;42.722;23.258;2023-05-14T14:06:24;13.00;;;10.10;;
11346;SDS011;5728;42.722;23.258;2023-05-14T14:08:53;13.77;;;10.67;;
11346;SDS011;5728;42.722;23.258;2023-05-14T14:11:20;14.33;;;10.53;;
11346;SDS011;5728;42.722;23.258;2023-05-14T14:13:47;16.37;;;10.00;;
11346;SDS011;5728;42.722;23.258;2023-05-14T14:16:14;14.67;;;10.43;;
11346;SDS011;5728;42.722;23.258;2023-05-14T14:18:41;12.63;;;10.30;;
11346;SDS011;5728;42.722;23.258;2023-05-14T14:21:08;10.83;;;9.43;;
11346;SDS011;5728;42.722;23.258;2023-05-14T14:23:35;13.57;;;11.10;;
11346;SDS011;5728;42.722;23.258;2023-05-14T14:26:03;12.57;;;10.97;;
11346;SDS011;5728;42.722;23.258;2023-05-14T14:28:31;14.27;;;11.33;;
11346;SDS011;5728;42.722;23.258;2023-05-14T14:30:58;14.43;;;11.50;;
11346;SDS011;5728;42.722;23.258;2023-05-14T14:33:25;13.70;;;11.17;;
11346;SDS011;5728;42.722;23.258;2023-05-14T14:35:51;18.50;;;11.90;;
11346;SDS011;5728;42.722;23.258;2023-05-14T14:38:18;17.37;;;11.80;;
11346;SDS011;5728;42.722;23.258;2023-05-14T14:40:45;23.13;;;13.83;;
11346;SDS011;5728;42.722;23.258;2023-05-14T14:43:13;16.73;;;11.83;;
11346;SDS011;5728;42.722;23.258;2023-05-14T14:45:40;18.87;;;12.70;;
11346;SDS011;5728;42.722;23.258;2023-05-14T14:48:22;15.27;;;12.20;;
11346;SDS011;5728;42.722;23.258;2023-05-14T14:50:50;14.53;;;11.20;;